createdAt,value
2022-08-23T00:01:24.274Z,7.40
2022-08-23T00:04:13.817Z,6.00
2022-08-23T00:07:00.341Z,4.38
2022-08-23T00:09:46.128Z,5.57
2022-08-23T00:12:31.364Z,7.93
2022-08-23T00:15:19.396Z,5.18
2022-08-23T00:18:04.727Z,4.60
2022-08-23T00:20:50.624Z,3.78
2022-08-23T00:23:36.082Z,3.60
2022-08-23T00:26:21.885Z,6.78
2022-08-23T00:29:07.261Z,4.88
2022-08-23T00:31:53.015Z,5.00
2022-08-23T00:34:39.695Z,4.35
2022-08-23T00:37:25.332Z,4.38
2022-08-23T00:40:13.117Z,4.72
2022-08-23T00:43:29.775Z,3.75
2022-08-23T00:46:58.213Z,3.60
2022-08-23T00:49:47.295Z,5.22
2022-08-23T00:52:39.924Z,3.65
2022-08-23T00:55:26.596Z,3.63
2022-08-23T00:58:14.361Z,3.05
2022-08-23T01:01:02.208Z,3.47
2022-08-23T01:03:57.080Z,2.92
2022-08-23T01:07:04.431Z,3.10
2022-08-23T01:09:51.473Z,3.72
2022-08-23T01:12:46.247Z,2.47
2022-08-23T01:15:46.297Z,3.72
2022-08-23T01:18:33.404Z,2.70
2022-08-23T01:21:26.483Z,3.08
2022-08-23T01:24:18.025Z,3.22
2022-08-23T01:27:14.429Z,3.00
2022-08-23T01:29:59.592Z,4.25
2022-08-23T01:32:50.043Z,3.30
2022-08-23T01:35:42.196Z,3.50
2022-08-23T01:41:13.258Z,3.65
2022-08-23T01:43:58.729Z,2.80
2022-08-23T01:46:47.662Z,3.90
2022-08-23T01:49:34.705Z,3.78
2022-08-23T01:52:21.227Z,3.33
2022-08-23T01:55:07.500Z,3.63
2022-08-23T01:57:59.941Z,3.67
2022-08-23T02:00:45.587Z,3.72
2022-08-23T02:03:32.818Z,3.53
2022-08-23T02:06:18.419Z,3.90
2022-08-23T02:09:05.827Z,3.15
2022-08-23T02:12:04.290Z,3.60
2022-08-23T02:14:50.899Z,2.95
2022-08-23T02:17:41.030Z,4.45
2022-08-23T02:20:26.288Z,2.67
2022-08-23T02:23:12.627Z,3.00
2022-08-23T02:25:57.980Z,4.07
2022-08-23T02:28:44.125Z,2.95
2022-08-23T02:31:29.248Z,2.72
2022-08-23T02:34:16.628Z,3.03
2022-08-23T02:37:03.172Z,3.13
2022-08-23T02:39:48.821Z,2.95
2022-08-23T02:42:34.759Z,4.45
2022-08-23T02:45:21.465Z,3.10
2022-08-23T02:48:08.316Z,3.78
2022-08-23T02:51:04.405Z,3.55
2022-08-23T02:53:50.039Z,3.83
2022-08-23T02:56:37.818Z,4.45
2022-08-23T02:59:23.839Z,3.70
2022-08-23T03:02:09.412Z,3.40
2022-08-23T03:04:58.857Z,3.05
2022-08-23T03:07:44.706Z,3.03
2022-08-23T03:10:31.092Z,3.92
2022-08-23T03:13:20.798Z,3.47
2022-08-23T03:16:09.704Z,4.50
2022-08-23T03:19:02.540Z,3.95
2022-08-23T03:21:48.117Z,4.82
2022-08-23T03:24:36.504Z,3.15
2022-08-23T03:27:22.266Z,3.30
2022-08-23T03:30:11.433Z,3.25
2022-08-23T03:33:09.120Z,3.10
2022-08-23T03:35:59.131Z,3.67
2022-08-23T03:38:45.221Z,3.20
2022-08-23T03:41:31.464Z,3.00
2022-08-23T03:44:16.809Z,3.63
2022-08-23T03:47:03.427Z,4.18
2022-08-23T03:49:48.953Z,4.50
2022-08-23T03:52:34.705Z,3.80
2022-08-23T03:55:20.228Z,4.00
2022-08-23T03:58:07.842Z,2.70
2022-08-23T04:00:53.321Z,4.43
2022-08-23T04:03:38.680Z,3.53
2022-08-23T04:06:24.088Z,3.53
2022-08-23T04:09:09.675Z,3.55
2022-08-23T04:11:55.193Z,3.72
2022-08-23T04:14:40.786Z,4.40
2022-08-23T04:17:26.413Z,3.63
2022-08-23T04:20:12.005Z,3.75
2022-08-23T04:23:07.711Z,3.60
2022-08-23T04:26:05.815Z,3.80
2022-08-23T04:28:54.830Z,3.72
2022-08-23T04:31:40.384Z,4.90
2022-08-23T04:34:28.641Z,3.33
2022-08-23T04:37:14.593Z,3.70
2022-08-23T04:40:19.045Z,3.88
2022-08-23T04:43:04.967Z,3.75
2022-08-23T04:45:50.468Z,3.58
2022-08-23T04:48:48.408Z,3.92
2022-08-23T04:51:35.481Z,3.40
2022-08-23T04:54:22.619Z,3.65
2022-08-23T04:57:28.870Z,4.05
2022-08-23T05:00:16.742Z,3.42
2022-08-23T05:03:09.140Z,2.90
2022-08-23T05:05:54.694Z,4.07
2022-08-23T05:08:45.207Z,3.20
2022-08-23T05:11:30.747Z,3.60
2022-08-23T05:14:16.976Z,3.53
2022-08-23T05:17:02.730Z,3.83
2022-08-23T05:19:48.896Z,3.65
2022-08-23T05:22:36.511Z,3.58
2022-08-23T05:25:52.486Z,3.42
2022-08-23T05:28:52.900Z,4.03
2022-08-23T05:31:43.912Z,3.10
2022-08-23T05:34:34.205Z,4.70
2022-08-23T05:37:23.438Z,3.85
2022-08-23T05:40:09.463Z,3.78
2022-08-23T05:43:02.250Z,3.42
2022-08-23T05:45:47.898Z,4.85
2022-08-23T05:48:34.922Z,3.50
2022-08-23T05:51:29.885Z,3.65
2022-08-23T05:57:01.305Z,3.63
2022-08-23T05:59:47.627Z,4.45
2022-08-23T06:02:32.885Z,5.63
2022-08-23T06:05:19.596Z,5.85
2022-08-23T06:08:06.288Z,7.22
2022-08-23T06:11:07.161Z,6.78
2022-08-23T06:13:59.659Z,5.25
2022-08-23T06:16:53.655Z,5.18
2022-08-23T06:19:42.190Z,4.60
2022-08-23T06:22:44.713Z,5.35
2022-08-23T06:25:30.398Z,5.15
2022-08-23T06:28:26.232Z,4.47
2022-08-23T06:31:13.327Z,5.35
2022-08-23T06:34:17.436Z,4.88
2022-08-23T06:37:22.232Z,4.18
2022-08-23T06:40:29.799Z,4.18
2022-08-23T06:43:36.378Z,4.00
2022-08-23T06:46:38.792Z,5.45
2022-08-23T06:49:25.356Z,4.63
2022-08-23T06:52:10.512Z,4.47
2022-08-23T06:55:18.027Z,5.15
2022-08-23T06:58:18.796Z,3.90
2022-08-23T07:01:46.555Z,3.80
2022-08-23T07:04:40.169Z,3.83
2022-08-23T07:07:44.852Z,3.80
2022-08-23T07:10:34.176Z,4.13
2022-08-23T07:13:19.571Z,3.15
2022-08-23T07:16:05.223Z,3.53
2022-08-23T07:18:52.964Z,4.78
2022-08-23T07:21:39.016Z,4.25
2022-08-23T07:24:29.344Z,4.25
2022-08-23T07:27:17.655Z,4.70
2022-08-23T07:30:16.539Z,3.83
2022-08-23T07:33:02.957Z,3.40
2022-08-23T07:35:55.611Z,3.03
2022-08-23T07:38:41.505Z,4.00
2022-08-23T07:41:32.829Z,5.15
2022-08-23T07:44:19.771Z,4.28
2022-08-23T07:47:09.160Z,3.92
2022-08-23T07:49:55.470Z,4.07
2022-08-23T07:52:41.225Z,4.07
2022-08-23T07:55:27.316Z,3.90
2022-08-23T07:58:22.663Z,5.47
2022-08-23T08:01:41.515Z,3.63
2022-08-23T08:04:27.145Z,2.75
2022-08-23T08:07:21.564Z,3.05
2022-08-23T08:10:14.653Z,3.10
2022-08-23T08:13:00.428Z,4.25
2022-08-23T08:15:47.033Z,3.10
2022-08-23T08:18:36.430Z,3.40
2022-08-23T08:21:42.374Z,3.72
2022-08-23T08:24:48.085Z,3.60
2022-08-23T08:27:33.282Z,2.88
2022-08-23T08:30:21.208Z,3.97
2022-08-23T08:33:07.166Z,3.35
2022-08-23T08:35:58.037Z,2.72
2022-08-23T08:38:50.334Z,2.13
2022-08-23T08:41:48.657Z,2.65
2022-08-23T08:44:57.961Z,2.67
2022-08-23T08:48:00.476Z,3.30
2022-08-23T08:50:55.191Z,3.03
2022-08-23T08:53:46.500Z,3.50
2022-08-23T08:56:34.382Z,2.37
2022-08-23T08:59:52.710Z,2.42
2022-08-23T09:02:40.217Z,3.83
2022-08-23T09:05:32.278Z,2.38
2022-08-23T09:08:39.990Z,3.53
2022-08-23T09:11:46.712Z,2.83
2022-08-23T09:14:53.691Z,2.22
2022-08-23T09:17:49.675Z,3.10
2022-08-23T09:20:36.498Z,3.08
2022-08-23T09:23:27.791Z,2.70
2022-08-23T09:26:24.004Z,3.65
2022-08-23T09:29:23.410Z,2.70
2022-08-23T09:32:33.897Z,3.08
2022-08-23T09:35:26.255Z,2.22
2022-08-23T09:38:26.968Z,4.07
2022-08-23T09:41:23.260Z,2.95
2022-08-23T09:44:16.330Z,4.00
2022-08-23T09:47:11.919Z,3.83
2022-08-23T09:50:25.893Z,3.45
2022-08-23T09:53:15.006Z,3.90
2022-08-23T09:56:16.472Z,5.57
2022-08-23T09:59:02.104Z,4.38
2022-08-23T10:02:02.068Z,3.92
2022-08-23T10:05:05.723Z,3.55
2022-08-23T10:08:01.592Z,3.75
2022-08-23T10:10:53.884Z,4.45
2022-08-23T10:13:48.897Z,4.45
2022-08-23T10:16:53.188Z,5.00
2022-08-23T10:19:58.231Z,4.88
2022-08-23T10:22:59.488Z,5.78
2022-08-23T10:25:58.751Z,6.00
2022-08-23T10:29:26.464Z,6.72
2022-08-23T10:32:30.037Z,3.47
2022-08-23T10:35:25.168Z,4.45
2022-08-23T10:38:40.247Z,7.53
2022-08-23T10:41:33.625Z,4.25
2022-08-23T10:44:33.212Z,4.32
2022-08-23T10:47:33.747Z,5.30
2022-08-23T10:50:21.068Z,2.67
2022-08-23T10:53:15.127Z,3.55
2022-08-23T10:56:04.871Z,2.72
2022-08-23T10:59:09.033Z,3.53
2022-08-23T11:02:28.130Z,2.17
2022-08-23T11:05:33.539Z,2.90
2022-08-23T11:08:34.015Z,2.70
2022-08-23T11:12:02.332Z,2.42
2022-08-23T11:15:12.450Z,3.15
2022-08-23T11:18:05.902Z,1.77
2022-08-23T11:23:51.930Z,2.75
2022-08-23T11:26:39.892Z,2.43
2022-08-23T11:29:28.236Z,2.38
2022-08-23T11:32:41.219Z,2.67
2022-08-23T11:35:37.821Z,2.83
2022-08-23T11:38:47.374Z,1.58
2022-08-23T11:41:36.859Z,2.08
2022-08-23T11:44:35.197Z,1.75
2022-08-23T11:47:41.197Z,2.22
2022-08-23T11:50:45.262Z,2.03
2022-08-23T11:53:49.159Z,3.13
2022-08-23T11:56:58.209Z,3.08
2022-08-23T12:00:17.513Z,3.53
2022-08-23T12:03:24.862Z,2.60
2022-08-23T12:06:39.287Z,2.35
2022-08-23T12:09:26.818Z,1.70
2022-08-23T12:12:26.202Z,2.30
2022-08-23T12:15:13.126Z,2.13
2022-08-23T12:18:13.076Z,3.53
2022-08-23T12:21:05.412Z,3.63
2022-08-23T12:23:57.086Z,2.53
2022-08-23T12:26:57.381Z,3.40
2022-08-23T12:29:54.944Z,2.22
2022-08-23T12:32:46.597Z,2.05
2022-08-23T12:35:50.509Z,2.25
2022-08-23T12:38:54.200Z,2.47
2022-08-23T12:42:06.867Z,3.03
2022-08-23T12:45:03.097Z,2.40
2022-08-23T12:48:00.849Z,2.58
2022-08-23T12:50:54.925Z,2.47
2022-08-23T12:53:45.389Z,2.60
2022-08-23T12:56:31.895Z,2.20
2022-08-23T12:59:33.239Z,2.22
2022-08-23T13:02:29.905Z,2.10
2022-08-23T13:05:41.638Z,1.75
2022-08-23T13:08:35.000Z,2.78
2022-08-23T13:11:23.597Z,2.47
2022-08-23T13:14:33.721Z,2.45
2022-08-23T13:17:42.161Z,4.43
2022-08-23T13:20:27.492Z,3.10
2022-08-23T13:23:17.308Z,2.70
2022-08-23T13:26:35.067Z,3.35
2022-08-23T13:29:24.520Z,2.97
2022-08-23T13:32:33.396Z,3.13
2022-08-23T13:35:36.025Z,3.85
2022-08-23T13:38:25.056Z,2.70
2022-08-23T13:41:26.092Z,2.67
2022-08-23T13:44:15.617Z,2.60
2022-08-23T13:47:23.653Z,2.25
2022-08-23T13:50:32.102Z,3.00
2022-08-23T13:53:17.657Z,3.03
2022-08-23T13:56:03.217Z,2.55
2022-08-23T13:59:07.447Z,3.25
2022-08-23T14:01:53.709Z,2.28
2022-08-23T14:04:39.060Z,2.47
2022-08-23T14:07:24.509Z,2.75
2022-08-23T14:10:09.856Z,2.47
2022-08-23T14:12:55.490Z,2.78
2022-08-23T14:16:32.368Z,2.08
2022-08-23T14:21:54.124Z,2.05
2022-08-23T14:24:39.785Z,2.38
2022-08-23T14:27:25.285Z,2.05
2022-08-23T14:30:18.995Z,2.92
2022-08-23T14:33:06.415Z,1.88
2022-08-23T14:35:52.473Z,2.88
2022-08-23T14:38:37.851Z,2.17
2022-08-23T14:41:26.868Z,2.42
2022-08-23T14:44:13.793Z,2.72
2022-08-23T14:46:59.052Z,4.28
2022-08-23T14:49:44.584Z,2.17
2022-08-23T14:52:30.017Z,3.03
2022-08-23T14:55:15.739Z,3.05
2022-08-23T14:58:01.264Z,2.40
2022-08-23T15:00:47.199Z,2.75
2022-08-23T15:03:32.948Z,1.70
2022-08-23T15:06:20.670Z,2.58
2022-08-23T15:09:05.886Z,1.95
2022-08-23T15:14:57.734Z,2.17
2022-08-23T15:17:53.169Z,2.17
2022-08-23T15:20:39.296Z,2.20
2022-08-23T15:23:24.543Z,2.40
2022-08-23T15:26:11.135Z,2.22
2022-08-23T15:28:56.700Z,2.55
2022-08-23T15:31:42.212Z,3.13
2022-08-23T15:34:29.640Z,4.50
2022-08-23T15:37:15.476Z,2.95
2022-08-23T15:40:01.017Z,3.83
2022-08-23T15:42:46.749Z,2.58
2022-08-23T15:45:33.264Z,2.00
2022-08-23T15:48:25.484Z,2.55
2022-08-23T15:51:11.321Z,2.28
2022-08-23T15:53:57.805Z,3.10
2022-08-23T15:56:48.041Z,2.40
2022-08-23T15:59:37.379Z,2.78
2022-08-23T16:02:22.967Z,2.45
2022-08-23T16:05:08.846Z,5.10
2022-08-23T16:07:56.531Z,4.72
2022-08-23T16:10:44.757Z,4.67
2022-08-23T16:13:30.472Z,5.40
2022-08-23T16:16:24.425Z,3.60
2022-08-23T16:19:10.133Z,4.47
2022-08-23T16:21:56.228Z,3.08
2022-08-23T16:24:41.997Z,3.13
2022-08-23T16:27:28.068Z,3.80
2022-08-23T16:30:14.107Z,3.55
2022-08-23T16:32:59.149Z,2.63
2022-08-23T16:35:44.540Z,3.63
2022-08-23T16:38:29.848Z,4.47
2022-08-23T16:41:15.510Z,3.97
2022-08-23T16:44:00.911Z,3.95
2022-08-23T16:46:46.834Z,3.15
2022-08-23T16:49:34.663Z,4.18
2022-08-23T16:52:20.661Z,5.63
2022-08-23T16:55:17.677Z,5.75
2022-08-23T16:58:04.273Z,4.20
2022-08-23T17:00:50.468Z,4.80
2022-08-23T17:03:35.992Z,4.57
2022-08-23T17:06:21.563Z,5.07
2022-08-23T17:09:06.861Z,4.07
2022-08-23T17:11:53.304Z,4.90
2022-08-23T17:14:38.632Z,5.15
2022-08-23T17:17:24.632Z,4.10
2022-08-23T17:20:12.952Z,3.85
2022-08-23T17:22:58.390Z,4.05
2022-08-23T17:25:47.588Z,3.83
2022-08-23T17:28:32.909Z,5.20
2022-08-23T17:31:19.585Z,3.42
2022-08-23T17:34:06.884Z,3.72
2022-08-23T17:36:55.108Z,4.18
2022-08-23T17:39:40.505Z,3.47
2022-08-23T17:42:26.312Z,3.80
2022-08-23T17:45:12.903Z,3.70
2022-08-23T17:47:58.212Z,3.33
2022-08-23T17:50:44.853Z,4.43
2022-08-23T17:53:30.075Z,2.65
2022-08-23T17:56:15.736Z,3.30
2022-08-23T17:59:01.302Z,3.25
2022-08-23T18:01:46.823Z,2.75
2022-08-23T18:04:32.471Z,3.92
2022-08-23T18:07:18.578Z,3.78
2022-08-23T18:10:07.048Z,2.45
2022-08-23T18:12:52.651Z,2.67
2022-08-23T18:15:37.769Z,3.15
2022-08-23T18:18:24.351Z,5.82
2022-08-23T18:21:12.597Z,3.15
2022-08-23T18:23:58.915Z,4.00
2022-08-23T18:27:03.352Z,4.45
2022-08-23T18:29:51.557Z,5.03
2022-08-23T18:32:37.365Z,5.28
2022-08-23T18:35:25.856Z,4.93
2022-08-23T18:38:12.623Z,4.43
2022-08-23T18:40:58.225Z,5.13
2022-08-23T18:43:43.755Z,3.08
2022-08-23T18:46:33.862Z,3.47
2022-08-23T18:49:19.540Z,4.07
2022-08-23T18:52:05.979Z,5.13
2022-08-23T18:54:51.340Z,5.38
2022-08-23T18:57:37.032Z,6.40
2022-08-23T19:00:22.604Z,5.70
2022-08-23T19:03:08.639Z,5.47
2022-08-23T19:05:56.773Z,5.32
2022-08-23T19:08:42.425Z,4.80
2022-08-23T19:11:29.205Z,4.43
2022-08-23T19:14:14.638Z,3.83
2022-08-23T19:17:03.499Z,4.57
2022-08-23T19:19:48.760Z,2.92
2022-08-23T19:22:34.484Z,2.60
2022-08-23T19:25:20.801Z,3.45
2022-08-23T19:28:06.293Z,2.55
2022-08-23T19:30:52.201Z,3.00
2022-08-23T19:33:37.665Z,2.42
2022-08-23T19:36:44.612Z,3.15
2022-08-23T19:39:29.976Z,2.58
2022-08-23T19:42:16.076Z,3.08
2022-08-23T19:45:01.565Z,2.80
2022-08-23T19:47:47.020Z,2.50
2022-08-23T19:50:32.509Z,2.60
2022-08-23T19:53:18.121Z,2.67
2022-08-23T19:56:04.334Z,2.28
2022-08-23T19:58:49.775Z,3.47
2022-08-23T20:01:36.037Z,2.72
2022-08-23T20:04:23.414Z,2.63
2022-08-23T20:07:09.083Z,2.45
2022-08-23T20:09:54.546Z,2.65
2022-08-23T20:12:41.698Z,3.28
2022-08-23T20:15:27.347Z,3.08
2022-08-23T20:18:12.556Z,3.38
2022-08-23T20:20:59.437Z,2.80
2022-08-23T20:24:03.562Z,3.28
2022-08-23T20:26:50.108Z,3.05
2022-08-23T20:29:35.311Z,4.10
2022-08-23T20:32:20.956Z,4.60
2022-08-23T20:35:07.917Z,3.55
2022-08-23T20:37:53.136Z,3.42
2022-08-23T20:40:38.884Z,3.90
2022-08-23T20:43:23.982Z,3.00
2022-08-23T20:46:09.719Z,3.25
2022-08-23T20:48:57.643Z,3.03
2022-08-23T20:51:43.328Z,2.92
2022-08-23T20:54:28.809Z,3.28
2022-08-23T20:57:14.050Z,2.97
2022-08-23T21:00:00.314Z,2.75
2022-08-23T21:02:45.650Z,3.03
2022-08-23T21:05:30.902Z,3.75
2022-08-23T21:08:16.792Z,2.70
2022-08-23T21:11:02.592Z,3.53
2022-08-23T21:13:48.133Z,3.90
2022-08-23T21:16:33.615Z,4.10
2022-08-23T21:19:19.091Z,4.80
2022-08-23T21:22:04.565Z,4.30
2022-08-23T21:24:49.857Z,4.32
2022-08-23T21:27:35.549Z,3.40
2022-08-23T21:30:20.781Z,3.97
2022-08-23T21:33:07.849Z,3.53
2022-08-23T21:35:53.013Z,2.97
2022-08-23T21:38:39.465Z,3.60
2022-08-23T21:41:45.699Z,2.75
2022-08-23T21:44:31.330Z,2.25
2022-08-23T21:47:16.587Z,2.00
2022-08-23T21:50:02.344Z,2.25
2022-08-23T21:52:56.507Z,2.85
2022-08-23T21:55:42.977Z,2.75
2022-08-23T21:58:29.554Z,2.80
2022-08-23T22:01:15.567Z,2.72
2022-08-23T22:04:06.078Z,2.60
2022-08-23T22:06:51.674Z,3.95
2022-08-23T22:09:41.339Z,3.30
2022-08-23T22:12:26.813Z,3.85
2022-08-23T22:15:12.932Z,3.50
2022-08-23T22:18:00.321Z,3.15
2022-08-23T22:20:45.608Z,3.47
2022-08-23T22:23:31.844Z,3.63
2022-08-23T22:26:16.922Z,3.20
2022-08-23T22:29:02.429Z,3.70
2022-08-23T22:31:48.502Z,3.30
2022-08-23T22:34:34.158Z,3.33
2022-08-23T22:37:19.620Z,2.92
2022-08-23T22:40:13.650Z,2.35
2022-08-23T22:42:59.071Z,2.15
2022-08-23T22:45:59.773Z,2.67
2022-08-23T22:48:46.197Z,1.88
2022-08-23T22:51:33.778Z,2.55
2022-08-23T22:54:19.431Z,1.92
2022-08-23T22:57:05.144Z,2.45
2022-08-23T22:59:50.592Z,1.80
2022-08-23T23:02:36.102Z,1.90
2022-08-23T23:05:21.938Z,1.70
2022-08-23T23:08:25.928Z,2.05
2022-08-23T23:11:13.399Z,1.90
2022-08-23T23:13:58.605Z,1.70
2022-08-23T23:16:45.132Z,1.88
2022-08-23T23:19:49.337Z,2.35
2022-08-23T23:22:34.411Z,1.70
2022-08-23T23:25:20.195Z,1.65
2022-08-23T23:28:05.851Z,1.90
2022-08-23T23:30:54.034Z,1.80
2022-08-23T23:33:39.480Z,1.75
2022-08-23T23:36:25.404Z,2.65
2022-08-23T23:39:12.681Z,1.70
2022-08-23T23:41:58.078Z,1.95
2022-08-23T23:44:43.423Z,1.40
2022-08-23T23:47:29.001Z,2.20
2022-08-23T23:50:14.485Z,1.80
2022-08-23T23:53:00.307Z,2.45
2022-08-23T23:55:46.019Z,2.08
2022-08-23T23:58:31.651Z,2.17
